KMWC

Lawrence J Timmerman Airport

Milwaukee, Wisconsin, USA
METAR KMWC 232145Z 26009KT 10SM OVC016 03/M01 A3018
Observed Flight Rules
Feb-23 @ 21:45 UTC (52 minutes ago) Marginal Visual Flight Rules
Wind Visibility Clouds
260° at 9 knots 10 miles
  • Overcast at 1,600' AGL
Temperatures Readings
Current 3°C / 37°F
Dewpoint -1°C / 30°F
Humidity 75%
Altimeter 30.18" Hg
Pressure 1022 hPa
Elevation 227
METAR KMWC 232145Z 26009KT 10SM OVC016 03/M01 A3018
Observed Flight Rules
Feb-23 @ 21:45 UTC
(52 minutes ago)
MVFR
Wind Visibility
260° at 9 knots 10 miles
Clouds
  • Overcast at 1,600' AGL
Temperature Dewpoint
3°C / 37°F -1°C / 30°F
Humidity Altimeter Pressure
75% 30.18" Hg 1022 hPa